createdAt,value
2023-01-30T00:01:50.016Z,10.82
2023-01-30T00:04:17.439Z,12.75
2023-01-30T00:06:44.569Z,10.30
2023-01-30T00:09:14.851Z,11.02
2023-01-30T00:11:42.499Z,11.15
2023-01-30T00:14:09.877Z,11.13
2023-01-30T00:16:36.626Z,11.18
2023-01-30T00:19:03.434Z,9.88
2023-01-30T00:21:30.051Z,10.98
2023-01-30T00:23:56.637Z,9.57
2023-01-30T00:26:23.325Z,10.45
2023-01-30T00:28:49.955Z,10.95
2023-01-30T00:31:16.635Z,10.75
2023-01-30T00:33:43.219Z,10.48
2023-01-30T00:36:10.762Z,10.30
2023-01-30T00:38:37.608Z,10.52
2023-01-30T00:41:04.578Z,10.13
2023-01-30T00:43:49.761Z,10.77
2023-01-30T00:46:58.354Z,10.38
2023-01-30T00:49:25.022Z,10.68
2023-01-30T00:51:51.800Z,10.43
2023-01-30T00:54:18.486Z,10.30
2023-01-30T00:56:45.054Z,11.85
2023-01-30T00:59:11.772Z,10.63
2023-01-30T01:01:38.921Z,10.25
2023-01-30T01:04:06.988Z,10.52
2023-01-30T01:06:33.631Z,12.57
2023-01-30T01:09:00.351Z,11.00
2023-01-30T01:11:27.062Z,10.10
2023-01-30T01:13:56.237Z,11.23
2023-01-30T01:16:23.776Z,9.88
2023-01-30T01:18:51.342Z,10.85
2023-01-30T01:21:20.308Z,12.00
2023-01-30T01:23:59.457Z,11.80
2023-01-30T01:26:27.046Z,9.55
2023-01-30T01:28:57.719Z,10.40
2023-01-30T01:31:25.739Z,10.20
2023-01-30T01:33:52.463Z,10.50
2023-01-30T01:36:42.531Z,9.52
2023-01-30T01:39:06.002Z,9.82
2023-01-30T01:41:32.568Z,9.48
2023-01-30T01:44:08.188Z,9.63
2023-01-30T01:46:36.898Z,10.27
2023-01-30T01:49:25.855Z,9.75
2023-01-30T01:52:04.084Z,10.80
2023-01-30T01:54:45.633Z,9.43
2023-01-30T01:57:32.272Z,9.47
2023-01-30T02:00:05.039Z,10.57
2023-01-30T02:02:32.333Z,9.98
2023-01-30T02:05:03.579Z,9.02
2023-01-30T02:07:33.690Z,10.02
2023-01-30T02:10:01.266Z,8.95
2023-01-30T02:12:28.105Z,9.88
2023-01-30T02:14:57.376Z,9.18
2023-01-30T02:17:24.635Z,10.30
2023-01-30T02:19:55.389Z,9.65
2023-01-30T02:22:59.607Z,8.40
2023-01-30T02:25:51.078Z,9.32
2023-01-30T02:28:55.121Z,10.05
2023-01-30T02:31:27.566Z,9.38
2023-01-30T02:34:10.958Z,9.32
2023-01-30T02:37:21.973Z,9.80
2023-01-30T02:40:11.742Z,8.55
2023-01-30T02:43:09.918Z,9.68
2023-01-30T02:45:53.191Z,9.10
2023-01-30T02:48:47.718Z,7.90
2023-01-30T02:51:20.380Z,8.88
2023-01-30T02:53:48.731Z,9.80
2023-01-30T02:56:15.685Z,9.27
2023-01-30T02:58:48.679Z,7.93
2023-01-30T03:01:31.351Z,9.43
2023-01-30T03:04:32.029Z,9.43
2023-01-30T03:07:29.418Z,8.13
2023-01-30T03:10:14.593Z,9.10
2023-01-30T03:12:58.871Z,8.65
2023-01-30T03:15:40.153Z,8.68
2023-01-30T03:18:07.528Z,9.73
2023-01-30T03:20:39.051Z,8.68
2023-01-30T03:23:05.807Z,8.88
2023-01-30T03:25:34.022Z,8.52
2023-01-30T03:28:03.757Z,9.10
2023-01-30T03:30:30.361Z,7.68
2023-01-30T03:32:56.996Z,8.48
2023-01-30T03:35:24.149Z,8.73
2023-01-30T03:37:51.069Z,9.20
2023-01-30T03:40:18.500Z,9.65
2023-01-30T03:42:45.156Z,9.15
2023-01-30T03:45:12.278Z,9.10
2023-01-30T03:47:38.867Z,9.13
2023-01-30T03:50:05.889Z,9.13
2023-01-30T03:52:35.499Z,8.85
2023-01-30T03:55:02.903Z,9.02
2023-01-30T03:57:29.514Z,9.23
2023-01-30T03:59:56.134Z,10.35
2023-01-30T04:02:23.466Z,9.60
2023-01-30T04:04:50.298Z,9.80
2023-01-30T04:07:17.744Z,7.70
2023-01-30T04:09:44.622Z,9.52
2023-01-30T04:12:11.202Z,9.00
2023-01-30T04:14:37.802Z,10.18
2023-01-30T04:17:04.461Z,8.90
2023-01-30T04:19:31.170Z,9.30
2023-01-30T04:21:57.788Z,9.50
2023-01-30T04:24:24.505Z,7.97
2023-01-30T04:26:51.067Z,8.82
2023-01-30T04:29:17.708Z,9.60
2023-01-30T04:31:44.316Z,11.45
2023-01-30T04:34:10.995Z,9.57
2023-01-30T04:36:37.577Z,8.73
2023-01-30T04:39:04.572Z,7.97
2023-01-30T04:41:31.190Z,8.20
2023-01-30T04:43:57.859Z,9.82
2023-01-30T04:46:24.889Z,9.82
2023-01-30T04:48:51.686Z,9.43
2023-01-30T04:51:18.631Z,10.93
2023-01-30T04:53:45.644Z,11.05
2023-01-30T04:56:12.338Z,10.63
2023-01-30T04:58:39.005Z,9.40
2023-01-30T05:01:21.709Z,10.10
2023-01-30T05:03:55.523Z,10.85
2023-01-30T05:06:23.655Z,11.23
2023-01-30T05:08:51.739Z,9.32
2023-01-30T05:11:19.391Z,12.05
2023-01-30T05:13:46.536Z,9.95
2023-01-30T05:16:14.964Z,12.75
2023-01-30T05:18:42.415Z,13.00
2023-01-30T05:21:14.052Z,11.57
2023-01-30T05:23:40.943Z,13.80
2023-01-30T05:26:07.976Z,14.07
2023-01-30T05:28:35.050Z,13.23
2023-01-30T05:31:03.061Z,14.35
2023-01-30T05:33:30.389Z,15.50
2023-01-30T05:35:57.400Z,14.45
2023-01-30T05:38:25.132Z,14.50
2023-01-30T05:41:03.660Z,15.77
2023-01-30T05:43:31.283Z,12.07
2023-01-30T05:46:00.616Z,13.25
2023-01-30T05:48:28.759Z,16.65
2023-01-30T05:50:57.506Z,16.38
2023-01-30T05:53:27.141Z,18.45
2023-01-30T05:55:57.431Z,16.15
2023-01-30T05:58:24.743Z,16.75
2023-01-30T06:00:51.729Z,16.02
2023-01-30T06:03:18.473Z,16.13
2023-01-30T06:05:45.296Z,17.55
2023-01-30T06:08:12.188Z,18.05
2023-01-30T06:10:38.952Z,15.55
2023-01-30T06:13:05.574Z,15.93
2023-01-30T06:15:34.331Z,17.45
2023-01-30T06:18:00.889Z,17.23
2023-01-30T06:20:27.650Z,16.15
2023-01-30T06:22:54.220Z,15.68
2023-01-30T06:25:21.130Z,16.52
2023-01-30T06:27:47.947Z,17.05
2023-01-30T06:30:15.037Z,16.83
2023-01-30T06:32:42.898Z,16.95
2023-01-30T06:35:09.851Z,15.00
2023-01-30T06:37:36.445Z,16.83
2023-01-30T06:40:03.204Z,18.52
2023-01-30T06:42:29.749Z,17.15
2023-01-30T06:44:56.350Z,15.85
2023-01-30T06:47:22.959Z,16.25
2023-01-30T06:49:49.514Z,17.73
2023-01-30T06:52:16.184Z,17.73
2023-01-30T06:54:42.800Z,17.88
2023-01-30T06:57:09.722Z,17.42
2023-01-30T06:59:36.358Z,16.08
2023-01-30T07:02:02.967Z,16.38
2023-01-30T07:04:29.601Z,18.65
2023-01-30T07:06:57.138Z,16.42
2023-01-30T07:09:23.732Z,14.27
2023-01-30T07:11:51.021Z,14.02
2023-01-30T07:14:17.632Z,13.55
2023-01-30T07:16:44.205Z,15.32
2023-01-30T07:19:10.997Z,14.02
2023-01-30T07:21:37.633Z,13.95
2023-01-30T07:24:04.735Z,13.52
2023-01-30T07:26:31.475Z,12.73
2023-01-30T07:28:58.470Z,13.60
2023-01-30T07:31:25.125Z,13.52
2023-01-30T07:33:51.742Z,13.93
2023-01-30T07:36:18.404Z,15.23
2023-01-30T07:38:45.082Z,13.50
2023-01-30T07:41:11.661Z,14.18
2023-01-30T07:43:38.315Z,14.10
2023-01-30T07:46:05.046Z,14.73
2023-01-30T07:48:31.638Z,14.65
2023-01-30T07:50:58.189Z,15.43
2023-01-30T07:53:25.061Z,13.55
2023-01-30T07:55:51.888Z,15.35
2023-01-30T07:58:18.440Z,15.43
2023-01-30T08:00:45.208Z,12.13
2023-01-30T08:03:13.959Z,13.23
2023-01-30T08:05:40.757Z,12.98
2023-01-30T08:08:07.431Z,12.10
2023-01-30T08:10:34.064Z,12.50
2023-01-30T08:13:00.808Z,12.57
2023-01-30T08:15:27.502Z,12.98
2023-01-30T08:17:56.308Z,11.77
2023-01-30T08:20:23.567Z,11.15
2023-01-30T08:22:50.264Z,11.68
2023-01-30T08:25:17.195Z,11.20
2023-01-30T08:27:43.928Z,12.60
2023-01-30T08:30:11.621Z,13.27
2023-01-30T08:32:38.249Z,11.20
2023-01-30T08:35:05.195Z,12.20
2023-01-30T08:37:31.967Z,9.77
2023-01-30T08:39:58.710Z,11.15
2023-01-30T08:42:25.546Z,10.30
2023-01-30T08:44:52.144Z,11.05
2023-01-30T08:47:19.136Z,10.93
2023-01-30T08:49:45.754Z,10.52
2023-01-30T08:52:12.380Z,10.05
2023-01-30T08:54:39.043Z,7.18
2023-01-30T08:57:05.687Z,9.88
2023-01-30T08:59:32.330Z,9.52
2023-01-30T09:01:58.930Z,9.50
2023-01-30T09:04:26.574Z,8.77
2023-01-30T09:06:53.203Z,9.63
2023-01-30T09:09:19.886Z,9.18
2023-01-30T09:11:48.138Z,8.95
2023-01-30T09:14:19.670Z,10.20
2023-01-30T09:16:56.144Z,9.90
2023-01-30T09:19:27.086Z,8.68
2023-01-30T09:21:54.412Z,9.32
2023-01-30T09:24:26.468Z,10.32
2023-01-30T09:26:58.953Z,9.13
2023-01-30T09:29:29.601Z,8.80
2023-01-30T09:31:56.764Z,9.38
2023-01-30T09:34:28.865Z,9.77
2023-01-30T09:39:22.889Z,11.50
2023-01-30T09:42:04.821Z,10.50
2023-01-30T09:44:56.289Z,10.52
2023-01-30T09:47:32.128Z,10.25
2023-01-30T09:50:34.091Z,10.70
2023-01-30T09:53:16.293Z,11.32
2023-01-30T09:55:43.570Z,9.10
2023-01-30T09:58:19.106Z,10.23
2023-01-30T10:00:49.021Z,10.13
2023-01-30T10:03:19.980Z,9.70
2023-01-30T10:06:23.153Z,12.07
2023-01-30T10:09:17.368Z,10.02
2023-01-30T10:12:06.233Z,10.63
2023-01-30T10:15:05.024Z,11.40
2023-01-30T10:18:03.434Z,10.98
2023-01-30T10:21:00.615Z,10.25
2023-01-30T10:23:36.525Z,9.52
2023-01-30T10:26:16.250Z,11.13
2023-01-30T10:29:06.221Z,12.13
2023-01-30T10:31:51.749Z,11.15
2023-01-30T10:34:34.827Z,11.45
2023-01-30T10:37:30.869Z,9.32
2023-01-30T10:40:10.960Z,10.43
2023-01-30T10:42:40.721Z,9.50
2023-01-30T10:45:15.366Z,9.75
2023-01-30T10:48:10.862Z,10.30
2023-01-30T10:50:52.578Z,10.23
2023-01-30T10:53:42.439Z,10.27
2023-01-30T10:56:17.092Z,11.30
2023-01-30T10:59:09.821Z,11.93
2023-01-30T11:02:03.544Z,11.10
2023-01-30T11:04:45.440Z,10.52
2023-01-30T11:07:13.400Z,10.57
2023-01-30T11:09:50.206Z,11.27
2023-01-30T11:12:16.886Z,12.02
2023-01-30T11:14:52.272Z,11.68
2023-01-30T11:17:21.701Z,11.10
2023-01-30T11:19:56.826Z,9.82
2023-01-30T11:22:28.763Z,12.15
2023-01-30T11:25:14.289Z,10.73
2023-01-30T11:27:44.367Z,10.48
2023-01-30T11:30:17.846Z,12.15
2023-01-30T11:32:48.412Z,11.02
2023-01-30T11:35:14.953Z,12.13
2023-01-30T11:37:45.113Z,11.65
2023-01-30T11:40:17.986Z,12.00
2023-01-30T11:42:48.879Z,12.68
2023-01-30T11:45:18.658Z,10.05
2023-01-30T11:47:57.940Z,11.85
2023-01-30T11:50:36.991Z,10.05
2023-01-30T11:53:21.382Z,12.27
2023-01-30T11:56:02.192Z,11.00
2023-01-30T11:58:34.772Z,10.50
2023-01-30T12:01:02.293Z,10.93
2023-01-30T12:03:32.884Z,11.15
2023-01-30T12:06:00.168Z,13.80
2023-01-30T12:08:42.670Z,14.32
2023-01-30T12:11:28.211Z,15.52
2023-01-30T12:14:32.073Z,12.60
2023-01-30T12:17:14.156Z,10.15
2023-01-30T12:19:56.598Z,12.07
2023-01-30T12:22:41.456Z,11.02
2023-01-30T12:25:20.656Z,11.73
2023-01-30T12:28:05.748Z,11.15
2023-01-30T12:30:32.319Z,11.98
2023-01-30T12:33:04.705Z,10.82
2023-01-30T12:38:35.856Z,12.85
2023-01-30T12:41:29.197Z,11.88
2023-01-30T12:44:08.136Z,12.25
2023-01-30T12:46:56.055Z,13.10
2023-01-30T12:49:37.367Z,10.70
2023-01-30T12:52:23.152Z,13.50
2023-01-30T12:55:01.631Z,12.10
2023-01-30T12:57:50.298Z,11.45
2023-01-30T13:00:29.352Z,10.93
2023-01-30T13:03:14.380Z,12.40
2023-01-30T13:05:54.224Z,10.95
2023-01-30T13:08:45.990Z,13.15
2023-01-30T13:11:37.469Z,14.00
2023-01-30T13:14:13.529Z,14.38
2023-01-30T13:16:49.271Z,12.25
2023-01-30T13:19:23.100Z,12.00
2023-01-30T13:22:01.904Z,12.18
2023-01-30T13:25:03.845Z,10.82
2023-01-30T13:27:37.305Z,13.00
2023-01-30T13:30:10.457Z,11.75
2023-01-30T13:32:44.639Z,12.13
2023-01-30T13:35:19.422Z,13.80
2023-01-30T13:37:49.021Z,10.85
2023-01-30T13:40:23.118Z,12.23
2023-01-30T13:43:11.360Z,14.18
2023-01-30T13:45:42.965Z,9.82
2023-01-30T13:48:21.433Z,14.95
2023-01-30T13:51:13.017Z,13.23
2023-01-30T13:54:11.968Z,12.63
2023-01-30T13:56:53.648Z,13.27
2023-01-30T13:59:35.350Z,13.00
2023-01-30T14:02:07.142Z,14.32
2023-01-30T14:04:39.665Z,13.48
2023-01-30T14:07:12.318Z,12.43
2023-01-30T14:10:02.469Z,10.57
2023-01-30T14:12:35.409Z,12.43
2023-01-30T14:15:28.905Z,13.55
2023-01-30T14:18:07.407Z,13.30
2023-01-30T14:20:43.089Z,11.95
2023-01-30T14:23:21.968Z,13.20
2023-01-30T14:25:54.059Z,12.15
2023-01-30T14:28:20.620Z,13.55
2023-01-30T14:30:48.718Z,14.25
2023-01-30T14:33:21.430Z,13.00
2023-01-30T14:36:03.134Z,13.25
2023-01-30T14:38:31.912Z,15.43
2023-01-30T14:40:58.510Z,18.20
2023-01-30T14:43:35.392Z,13.57
2023-01-30T14:46:03.199Z,13.02
2023-01-30T14:48:39.778Z,12.55
2023-01-30T14:51:39.318Z,12.90
2023-01-30T14:54:11.803Z,13.45
2023-01-30T14:56:44.220Z,12.98
2023-01-30T14:59:16.863Z,14.25
2023-01-30T15:02:01.627Z,13.52
2023-01-30T15:04:33.345Z,14.07
2023-01-30T15:07:10.887Z,13.30
2023-01-30T15:09:40.765Z,14.05
2023-01-30T15:12:26.691Z,12.60
2023-01-30T15:15:24.122Z,15.05
2023-01-30T15:18:29.313Z,16.95
2023-01-30T15:21:19.509Z,14.02
2023-01-30T15:24:04.433Z,14.57
2023-01-30T15:26:47.242Z,12.93
2023-01-30T15:29:47.143Z,12.95
2023-01-30T15:32:19.903Z,13.95
2023-01-30T15:35:12.265Z,12.32
2023-01-30T15:37:41.555Z,14.13
2023-01-30T15:40:12.360Z,14.88
2023-01-30T15:42:39.098Z,14.70
2023-01-30T15:45:17.415Z,13.68
2023-01-30T15:47:54.489Z,14.27
2023-01-30T15:50:21.505Z,13.48
2023-01-30T15:52:51.565Z,13.23
2023-01-30T15:55:29.974Z,14.10
2023-01-30T15:58:01.532Z,13.68
2023-01-30T16:00:34.855Z,15.18
2023-01-30T16:03:03.776Z,13.57
2023-01-30T16:05:30.781Z,15.27
2023-01-30T16:07:59.236Z,13.35
2023-01-30T16:10:28.363Z,14.70
2023-01-30T16:12:57.143Z,15.50
2023-01-30T16:15:36.745Z,13.73
2023-01-30T16:18:13.151Z,16.00
2023-01-30T16:21:00.210Z,13.07
2023-01-30T16:23:52.395Z,13.18
2023-01-30T16:26:21.973Z,13.35
2023-01-30T16:28:51.114Z,14.48
2023-01-30T16:31:18.876Z,14.07
2023-01-30T16:33:52.769Z,14.80
2023-01-30T16:36:22.493Z,15.05
2023-01-30T16:38:50.756Z,15.43
2023-01-30T16:41:35.189Z,12.00
2023-01-30T16:44:21.604Z,14.57
2023-01-30T16:47:02.827Z,13.73
2023-01-30T16:49:39.299Z,14.63
2023-01-30T16:52:11.959Z,14.10
2023-01-30T16:54:47.208Z,12.73
2023-01-30T16:57:36.396Z,14.73
2023-01-30T17:00:10.119Z,11.23
2023-01-30T17:02:41.206Z,14.98
2023-01-30T17:05:18.260Z,13.30
2023-01-30T17:07:45.661Z,13.85
2023-01-30T17:10:41.503Z,13.02
2023-01-30T17:13:30.110Z,13.27
2023-01-30T17:16:16.713Z,12.90
2023-01-30T17:18:46.979Z,12.40
2023-01-30T17:21:14.706Z,11.80
2023-01-30T17:23:46.986Z,13.07
2023-01-30T17:26:15.391Z,13.50
2023-01-30T17:28:42.380Z,12.00
2023-01-30T17:31:13.706Z,12.20
2023-01-30T17:33:40.744Z,12.07
2023-01-30T17:36:17.429Z,12.48
2023-01-30T17:38:43.990Z,13.70
2023-01-30T17:41:20.680Z,11.15
2023-01-30T17:43:49.743Z,10.07
2023-01-30T17:46:17.190Z,10.57
2023-01-30T17:48:44.791Z,11.23
2023-01-30T17:51:14.456Z,12.00
2023-01-30T17:53:41.916Z,11.90
2023-01-30T17:56:19.192Z,10.98
2023-01-30T17:58:46.174Z,11.00
2023-01-30T18:01:19.171Z,11.70
2023-01-30T18:03:46.157Z,10.63
2023-01-30T18:06:14.577Z,8.82
2023-01-30T18:08:41.951Z,10.70
2023-01-30T18:11:11.768Z,9.82
2023-01-30T18:13:39.949Z,10.35
2023-01-30T18:16:06.853Z,10.63
2023-01-30T18:18:34.292Z,9.80
2023-01-30T18:21:01.017Z,11.98
2023-01-30T18:23:28.823Z,12.52
2023-01-30T18:25:55.461Z,11.52
2023-01-30T18:28:22.163Z,10.82
2023-01-30T18:30:48.950Z,10.38
2023-01-30T18:33:15.688Z,10.32
2023-01-30T18:35:42.473Z,9.55
2023-01-30T18:38:09.249Z,11.32
2023-01-30T18:40:39.317Z,10.13
2023-01-30T18:43:06.111Z,10.38
2023-01-30T18:45:32.880Z,9.88
2023-01-30T18:48:00.323Z,9.98
2023-01-30T18:50:27.139Z,11.35
2023-01-30T18:52:53.757Z,11.02
2023-01-30T18:55:21.252Z,9.85
2023-01-30T18:57:48.245Z,11.30
2023-01-30T19:00:21.401Z,10.32
2023-01-30T19:02:53.047Z,9.40
2023-01-30T19:05:20.259Z,10.07
2023-01-30T19:07:47.260Z,10.63
2023-01-30T19:10:17.711Z,9.70
2023-01-30T19:13:06.083Z,10.57
2023-01-30T19:15:35.349Z,10.90
2023-01-30T19:18:01.964Z,10.88
2023-01-30T19:20:28.938Z,10.85
2023-01-30T19:22:55.702Z,12.98
2023-01-30T19:25:22.633Z,14.13
2023-01-30T19:27:49.286Z,10.95
2023-01-30T19:30:16.182Z,11.35
2023-01-30T19:32:42.949Z,10.60
2023-01-30T19:35:12.047Z,9.85
2023-01-30T19:37:39.355Z,10.65
2023-01-30T19:40:09.485Z,11.18
2023-01-30T19:42:38.767Z,11.38
2023-01-30T19:45:07.640Z,10.38
2023-01-30T19:47:34.634Z,11.02
2023-01-30T19:50:03.750Z,11.05
2023-01-30T19:52:30.443Z,11.18
2023-01-30T19:54:57.117Z,9.95
2023-01-30T19:57:23.771Z,9.77
2023-01-30T19:59:50.728Z,9.57
2023-01-30T20:02:17.387Z,10.77
2023-01-30T20:04:44.056Z,10.13
2023-01-30T20:07:10.745Z,11.00
2023-01-30T20:09:37.364Z,10.48
2023-01-30T20:12:04.100Z,12.20
2023-01-30T20:14:30.740Z,11.13
2023-01-30T20:16:57.305Z,10.38
2023-01-30T20:19:23.937Z,10.27
2023-01-30T20:21:50.775Z,10.40
2023-01-30T20:24:17.433Z,10.63
2023-01-30T20:26:48.383Z,11.10
2023-01-30T20:29:17.473Z,11.05
2023-01-30T20:31:44.262Z,12.40
2023-01-30T20:34:15.478Z,11.90
2023-01-30T20:36:42.136Z,10.55
2023-01-30T20:39:09.169Z,11.02
2023-01-30T20:41:37.628Z,10.25
2023-01-30T20:44:06.651Z,10.63
2023-01-30T20:46:41.666Z,10.70
2023-01-30T20:49:26.880Z,11.32
2023-01-30T20:51:54.388Z,12.73
2023-01-30T20:54:23.254Z,13.73
2023-01-30T20:56:52.336Z,12.90
2023-01-30T20:59:23.943Z,11.77
2023-01-30T21:01:52.065Z,13.02
2023-01-30T21:04:22.273Z,12.35
2023-01-30T21:06:48.992Z,11.50
2023-01-30T21:09:19.044Z,11.07
2023-01-30T21:11:46.362Z,11.25
2023-01-30T21:14:13.049Z,11.63
2023-01-30T21:16:39.940Z,11.13
2023-01-30T21:19:11.154Z,11.75
2023-01-30T21:21:44.294Z,11.77
2023-01-30T21:24:14.731Z,9.68
2023-01-30T21:26:46.323Z,10.88
2023-01-30T21:29:22.080Z,11.27
2023-01-30T21:31:49.181Z,12.77
2023-01-30T21:34:15.943Z,11.82
2023-01-30T21:36:42.663Z,11.30
2023-01-30T21:39:33.906Z,9.35
2023-01-30T21:42:21.207Z,9.35
2023-01-30T21:44:47.946Z,11.30
2023-01-30T21:47:14.643Z,11.13
2023-01-30T21:49:43.971Z,9.52
2023-01-30T21:52:10.588Z,10.35
2023-01-30T21:54:37.757Z,11.40
2023-01-30T21:57:04.385Z,9.85
2023-01-30T21:59:32.045Z,11.68
2023-01-30T22:01:58.636Z,11.45
2023-01-30T22:04:25.228Z,11.88
2023-01-30T22:06:51.940Z,12.13
2023-01-30T22:09:18.579Z,11.52
2023-01-30T22:11:46.176Z,11.68
2023-01-30T22:14:14.145Z,10.85
2023-01-30T22:16:41.676Z,11.68
2023-01-30T22:19:08.833Z,11.32
2023-01-30T22:21:37.600Z,10.90
2023-01-30T22:24:05.916Z,11.82
2023-01-30T22:26:33.980Z,10.38
2023-01-30T22:29:02.556Z,12.98
2023-01-30T22:31:34.971Z,11.80
2023-01-30T22:34:03.489Z,10.73
2023-01-30T22:36:33.588Z,11.68
2023-01-30T22:39:00.571Z,11.65
2023-01-30T22:41:28.649Z,12.07
2023-01-30T22:43:57.339Z,12.23
2023-01-30T22:46:26.198Z,12.18
2023-01-30T22:48:53.241Z,13.30
2023-01-30T22:51:23.356Z,12.10
2023-01-30T22:53:54.896Z,12.65
2023-01-30T22:56:24.233Z,12.25
2023-01-30T22:58:51.483Z,12.93
2023-01-30T23:01:22.774Z,12.18
2023-01-30T23:03:55.221Z,13.00
2023-01-30T23:06:22.275Z,11.25
2023-01-30T23:08:49.305Z,11.90
2023-01-30T23:11:20.677Z,12.13
2023-01-30T23:13:49.751Z,12.27
2023-01-30T23:16:19.890Z,12.70
2023-01-30T23:18:55.681Z,12.50
2023-01-30T23:21:24.197Z,12.77
2023-01-30T23:23:54.330Z,13.50
2023-01-30T23:26:23.330Z,13.23
2023-01-30T23:28:50.376Z,13.48
2023-01-30T23:31:20.744Z,12.38
2023-01-30T23:33:47.870Z,12.60
2023-01-30T23:36:15.123Z,13.27
2023-01-30T23:38:41.923Z,11.15
2023-01-30T23:41:10.339Z,12.15
2023-01-30T23:43:38.819Z,12.90
2023-01-30T23:46:19.506Z,13.13
2023-01-30T23:48:47.627Z,11.57
2023-01-30T23:51:15.555Z,11.30
2023-01-30T23:53:43.500Z,11.88
2023-01-30T23:56:11.240Z,10.93
2023-01-30T23:58:38.756Z,10.77
